^^
Saratoga-Weather Station Historical Data
Daily Summary for February 26, 2021 Units:  Metric    English   Both
Daily Weekly Monthly Yearly Custom
  High: Low: Average:
Temperature: 9.2 °C 3.1 °C 6.6 °C
Dew Point: 6.7 °C 1.3 °C 4.5 °C
Humidity: 92% 80% 87%
Wind Speed: 14.3km/h 0km/h 1.5km/h
Wind Gust: 20.9km/h - -
Wind- - SW
Pressure: 1035.6 hPa 1028.1 hPa -
Precipitation: 0.5 mm    
Historical Graphs
 
 
Tabular Data for February 26, 2021
Time Temperature Dew Point Pressure Wind Wind Speed Wind Gust Humidity Rainfall Rate (Hourly) solar
00:09 7.8 °C 4.6 °C 1028.1 hPa Calm     80% 0.0 mm 0 W/m2
00:14 7.8 °C 4.7 °C 1028.5 hPa Calm     81% 0.0 mm 0 W/m2
00:19 7.6 °C 4.5 °C 1028.5 hPa Calm     81% 0.0 mm 0 W/m2
00:24 7.5 °C 4.5 °C 1028.5 hPa Calm     81% 0.0 mm 0 W/m2
00:29 7.4 °C 4.5 °C 1028.5 hPa West 1.4 km/h 1.6 km/h 82% 0.0 mm 0 W/m2
00:34 7.4 °C 4.5 °C 1028.5 hPa Calm     82% 0.0 mm 0 W/m2
00:39 7.3 °C 4.4 °C 1028.5 hPa Calm   1.6 km/h 82% 0.0 mm 0 W/m2
00:44 7.3 °C 4.6 °C 1028.5 hPa Calm     83% 0.0 mm 0 W/m2
00:49 7.3 °C 4.4 °C 1028.5 hPa Calm   1.6 km/h 82% 0.0 mm 0 W/m2
00:54 7.3 °C 4.6 °C 1028.5 hPa Calm     83% 0.0 mm 0 W/m2
00:59 7.2 °C 4.5 °C 1028.5 hPa Calm     83% 0.0 mm 0 W/m2
01:04 7.2 °C 4.5 °C 1028.5 hPa Calm     83% 0.0 mm 0 W/m2
01:09 7.2 °C 4.5 °C 1028.5 hPa Calm     83% 0.0 mm 0 W/m2
01:14 7.2 °C 4.7 °C 1028.5 hPa Calm     84% 0.0 mm 0 W/m2
01:19 7.2 °C 4.7 °C 1028.5 hPa Calm     84% 0.0 mm 0 W/m2
01:24 7.2 °C 4.5 °C 1028.5 hPa Calm     83% 0.0 mm 0 W/m2
01:29 7.1 °C 4.4 °C 1028.5 hPa Calm     83% 0.0 mm 0 W/m2
01:34 7.1 °C 4.4 °C 1028.5 hPa Calm     83% 0.0 mm 0 W/m2
01:39 7 °C 4.5 °C 1028.5 hPa Calm     84% 0.0 mm 0 W/m2
01:44 6.9 °C 4.4 °C 1028.5 hPa Calm     84% 0.0 mm 0 W/m2
01:49 6.7 °C 4.2 °C 1028.5 hPa Calm     84% 0.0 mm 0 W/m2
01:54 6.6 °C 4.3 °C 1028.5 hPa Calm     85% 0.0 mm 0 W/m2
01:59 6.5 °C 4.2 °C 1028.5 hPa Calm     85% 0.0 mm 0 W/m2
02:04 6.4 °C 4.1 °C 1028.5 hPa Calm     85% 0.0 mm 0 W/m2
02:09 6.4 °C 4.1 °C 1028.5 hPa Calm     85% 0.0 mm 0 W/m2
02:14 6.3 °C 4 °C 1028.5 hPa West 1.4 km/h 3.2 km/h 85% 0.0 mm 0 W/m2
02:19 6.3 °C 4 °C 1028.5 hPa Calm     85% 0.0 mm 0 W/m2
02:24 6.2 °C 4 °C 1028.8 hPa Calm     86% 0.0 mm 0 W/m2
02:29 6.2 °C 4 °C 1028.8 hPa Calm     86% 0.0 mm 0 W/m2
02:34 6 °C 3.8 °C 1028.8 hPa Calm     86% 0.0 mm 0 W/m2
02:39 5.9 °C 3.9 °C 1028.8 hPa Calm     87% 0.0 mm 0 W/m2
02:44 5.8 °C 3.8 °C 1028.8 hPa Calm     87% 0.0 mm 0 W/m2
02:49 5.8 °C 3.8 °C 1028.8 hPa Calm     87% 0.0 mm 0 W/m2
02:54 5.7 °C 3.7 °C 1028.8 hPa Calm     87% 0.0 mm 0 W/m2
02:59 5.7 °C 3.7 °C 1028.8 hPa Calm     87% 0.0 mm 0 W/m2
03:04 5.7 °C 3.9 °C 1028.5 hPa Calm     88% 0.0 mm 0 W/m2
03:09 5.7 °C 3.9 °C 1028.5 hPa Calm     88% 0.0 mm 0 W/m2
03:14 5.7 °C 4 °C 1028.5 hPa Calm   1.6 km/h 89% 0.0 mm 0 W/m2
03:19 5.7 °C 4 °C 1028.5 hPa Calm     89% 0.0 mm 0 W/m2
03:24 5.8 °C 4.1 °C 1028.5 hPa Calm   1.6 km/h 89% 0.0 mm 0 W/m2
03:29 5.8 °C 4.1 °C 1028.5 hPa West 1.4 km/h 1.6 km/h 89% 0.0 mm 0 W/m2
03:34 5.9 °C 4.2 °C 1028.5 hPa Calm   1.6 km/h 89% 0.0 mm 0 W/m2
03:44 5.9 °C 4.2 °C 1028.5 hPa Calm   1.6 km/h 89% 0.0 mm 0 W/m2
03:49 5.9 °C 4.2 °C 1028.1 hPa Calm     89% 0.0 mm 0 W/m2
03:54 5.9 °C 4.2 °C 1028.5 hPa Calm     89% 0.0 mm 0 W/m2
03:59 6 °C 4.3 °C 1028.1 hPa Calm   3.2 km/h 89% 0.0 mm 0 W/m2
04:04 6.1 °C 4.6 °C 1028.5 hPa Calm   1.6 km/h 90% 0.0 mm 0 W/m2
04:09 6.2 °C 4.7 °C 1028.5 hPa West 1.4 km/h 3.2 km/h 90% 0.0 mm 0 W/m2
04:14 6.4 °C 4.9 °C 1028.5 hPa West 3.2 km/h 4.8 km/h 90% 0.0 mm 0 W/m2
04:19 6.7 °C 5 °C 1028.5 hPa West 3.2 km/h 3.2 km/h 89% 0.0 mm 0 W/m2
04:24 6.8 °C 5 °C 1028.5 hPa Calm   4.8 km/h 88% 0.0 mm 0 W/m2
04:29 6.9 °C 5.1 °C 1028.5 hPa West 1.4 km/h 1.6 km/h 88% 0.0 mm 0 W/m2
04:39 8.3 °C 6.4 °C 1028.1 hPa West 1.4 km/h 11.3 km/h 88% 0.0 mm 0 W/m2
04:44 9 °C 6.4 °C 1028.1 hPa West 3.2 km/h 6.4 km/h 84% 0.0 mm 0 W/m2
04:49 9.2 °C 6.5 °C 1028.1 hPa Calm   11.3 km/h 83% 0.0 mm 0 W/m2
04:54 9.2 °C 6.3 °C 1028.1 hPa Calm   1.6 km/h 82% 0.0 mm 0 W/m2
04:59 8.9 °C 5.6 °C 1028.5 hPa Calm     80% 0.0 mm 0 W/m2
05:04 8.7 °C 5.4 °C 1028.5 hPa Calm   3.2 km/h 80% 0.0 mm 0 W/m2
05:09 8.4 °C 5.3 °C 1028.5 hPa Calm   1.6 km/h 81% 0.0 mm 0 W/m2
05:14 8.3 °C 5.4 °C 1028.5 hPa Calm     82% 0.0 mm 0 W/m2
05:19 8.1 °C 5.2 °C 1028.5 hPa Calm     82% 0.0 mm 0 W/m2
05:24 7.9 °C 5.2 °C 1028.5 hPa Calm   1.6 km/h 83% 0.0 mm 0 W/m2
05:29 7.8 °C 5.1 °C 1028.5 hPa Calm     83% 0.0 mm 0 W/m2
05:34 7.6 °C 4.9 °C 1028.5 hPa NW 1.4 km/h 3.2 km/h 83% 0.0 mm 0 W/m2
05:39 7.3 °C 4.6 °C 1028.8 hPa Calm     83% 0.0 mm 0 W/m2
05:44 7.1 °C 4.6 °C 1028.8 hPa Calm     84% 0.0 mm 0 W/m2
05:49 6.9 °C 4.4 °C 1028.8 hPa Calm   3.2 km/h 84% 0.0 mm 0 W/m2
05:54 6.8 °C 4.5 °C 1028.8 hPa Calm     85% 0.0 mm 0 W/m2
06:04 6.7 °C 4.5 °C 1028.8 hPa Calm     86% 0.0 mm 0 W/m2
06:09 6.7 °C 4.7 °C 1028.8 hPa Calm     87% 0.0 mm 0 W/m2
06:14 6.7 °C 4.7 °C 1028.8 hPa Calm     87% 0.0 mm 0 W/m2
06:19 6.8 °C 4.8 °C 1028.5 hPa Calm   3.2 km/h 87% 0.0 mm 0 W/m2
06:24 6.9 °C 5.1 °C 1028.5 hPa Calm   1.6 km/h 88% 0.0 mm 0 W/m2
06:29 7.1 °C 5.2 °C 1028.8 hPa Calm   1.6 km/h 88% 0.0 mm 0 W/m2
06:34 7.3 °C 5.3 °C 1028.8 hPa Calm   1.6 km/h 87% 0.0 mm 0 W/m2
06:39 7.4 °C 5.4 °C 1028.8 hPa WNW 1.4 km/h 4.8 km/h 87% 0.0 mm 0 W/m2
06:44 7.6 °C 5.6 °C 1028.8 hPa Calm     87% 0.0 mm 0 W/m2
06:49 7.7 °C 5.5 °C 1028.8 hPa WNW 1.4 km/h 1.6 km/h 86% 0.0 mm 0 W/m2
06:54 7.8 °C 5.6 °C 1028.8 hPa Calm   3.2 km/h 86% 0.0 mm 0 W/m2
06:59 7.8 °C 5.6 °C 1028.8 hPa WNW 1.4 km/h 4.8 km/h 86% 0.0 mm 0 W/m2
07:04 8 °C 6 °C 1028.5 hPa West 1.4 km/h 4.8 km/h 87% 0.0 mm 0 W/m2
07:09 8.2 °C 6.2 °C 1028.8 hPa Calm   1.6 km/h 87% 0.0 mm 0 W/m2
07:14 8.3 °C 5.9 °C 1028.8 hPa WNW 1.4 km/h 1.6 km/h 85% 0.0 mm 0 W/m2
07:19 8.3 °C 5.8 °C 1028.8 hPa Calm     84% 0.0 mm 0 W/m2
07:24 8.3 °C 5.8 °C 1028.8 hPa Calm     84% 0.0 mm 0 W/m2
07:29 8.3 °C 5.9 °C 1028.8 hPa Calm     85% 0.0 mm 0 W/m2
07:34 8.3 °C 6.1 °C 1028.8 hPa South 1.4 km/h 3.2 km/h 86% 0.0 mm 0 W/m2
07:39 8.3 °C 5.9 °C 1029.1 hPa Calm   1.6 km/h 85% 0.0 mm 0 W/m2
07:44 8.3 °C 5.9 °C 1029.1 hPa Calm   1.6 km/h 85% 0.0 mm 0 W/m2
07:49 8.3 °C 5.9 °C 1029.1 hPa Calm     85% 0.0 mm 0 W/m2
07:54 8.3 °C 5.9 °C 1029.1 hPa Calm   1.6 km/h 85% 0.0 mm 7 W/m2
07:59 8.3 °C 5.9 °C 1029.1 hPa Calm     85% 0.0 mm 11 W/m2
08:04 8.3 °C 5.9 °C 1029.5 hPa Calm     85% 0.0 mm 16 W/m2
08:09 8.3 °C 5.9 °C 1029.1 hPa Calm     85% 0.0 mm 18 W/m2
08:14 8.3 °C 5.9 °C 1029.5 hPa Calm   1.6 km/h 85% 0.0 mm 18 W/m2
08:19 8.3 °C 6.1 °C 1029.5 hPa Calm     86% 0.0 mm 14 W/m2
08:24 8.4 °C 6.2 °C 1029.5 hPa Calm   1.6 km/h 86% 0.0 mm 9 W/m2
08:29 8.4 °C 6.2 °C 1029.5 hPa Calm     86% 0.0 mm 9 W/m2
08:34 8.4 °C 6.2 °C 1029.5 hPa Calm   3.2 km/h 86% 0.0 mm 11 W/m2
08:39 8.4 °C 6.2 °C 1029.5 hPa Calm     86% 0.0 mm 11 W/m2
08:44 8.4 °C 6.2 °C 1029.5 hPa Calm   3.2 km/h 86% 0.0 mm 11 W/m2
08:49 8.4 °C 6.2 °C 1029.8 hPa Calm     86% 0.0 mm 16 W/m2
08:54 8.4 °C 6.2 °C 1029.8 hPa Calm     86% 0.0 mm 16 W/m2
08:59 8.5 °C 6.3 °C 1029.8 hPa Calm     86% 0.0 mm 11 W/m2
09:04 8.5 °C 6.3 °C 1029.8 hPa NW 1.4 km/h 3.2 km/h 86% 0.0 mm 11 W/m2
09:09 8.6 °C 6.4 °C 1030.1 hPa North 1.4 km/h 3.2 km/h 86% 0.0 mm 16 W/m2
09:14 8.6 °C 6.6 °C 1030.1 hPa North 1.4 km/h 8 km/h 87% 0.0 mm 16 W/m2
09:24 8.6 °C 6.7 °C 1030.1 hPa WNW 4.7 km/h 8 km/h 88% 0.0 mm 19 W/m2
09:29 8.4 °C 6.7 °C 1030.5 hPa NNW 6.4 km/h 9.7 km/h 89% 0.0 mm 23 W/m2
09:34 8.2 °C 6.3 °C 1030.5 hPa NNE 7.9 km/h 9.7 km/h 88% 0.0 mm 23 W/m2
09:39 8 °C 6.3 °C 1030.8 hPa NNW 6.4 km/h 6.4 km/h 89% 0.0 mm 32 W/m2
09:44 7.8 °C 6.1 °C 1030.5 hPa NW 1.4 km/h 8 km/h 89% 0.0 mm 30 W/m2
09:49 7.8 °C 6.3 °C 1030.5 hPa WNW 6.4 km/h 11.3 km/h 90% 0.0 mm 33 W/m2
09:54 7.7 °C 6.2 °C 1030.8 hPa North 4.7 km/h 11.3 km/h 90% 0.0 mm 32 W/m2
09:59 7.5 °C 6 °C 1030.8 hPa SW 6.4 km/h 9.7 km/h 90% 0.2 mm 39 W/m2
10:04 7.4 °C 5.9 °C 1030.8 hPa NNE 4.7 km/h 9.7 km/h 90% 0.2 mm 53 W/m2
10:09 7.3 °C 5.6 °C 1030.8 hPa WNW 3.2 km/h 9.7 km/h 89% 0.2 mm 65 W/m2
10:14 7.3 °C 5.6 °C 1031.2 hPa Calm   4.8 km/h 89% 0.2 mm 35 W/m2
10:19 7.3 °C 5.6 °C 1031.2 hPa WNW 3.2 km/h 9.7 km/h 89% 0.2 mm 26 W/m2
10:24 7.3 °C 5.6 °C 1031.2 hPa West 3.2 km/h 11.3 km/h 89% 0.2 mm 23 W/m2
10:39 7.2 °C 5.5 °C 1031.2 hPa North 6.4 km/h 9.7 km/h 89% 0.2 mm 16 W/m2
10:49 7.1 °C 5.4 °C 1031.2 hPa NW 4.7 km/h 11.3 km/h 89% 0.2 mm 19 W/m2
10:54 7 °C 5.5 °C 1031.5 hPa NNW 1.4 km/h 4.8 km/h 90% 0.2 mm 30 W/m2
10:59 6.9 °C 5.4 °C 1031.5 hPa NW 1.4 km/h 4.8 km/h 90% 0.0 mm 21 W/m2
11:04 6.8 °C 5.3 °C 1031.5 hPa North 1.4 km/h 16.1 km/h 90% 0.0 mm 18 W/m2
11:09 6.8 °C 5.3 °C 1031.5 hPa NNW 4.7 km/h 6.4 km/h 90% 0.0 mm 28 W/m2
11:14 6.7 °C 5.3 °C 1031.8 hPa NNW 6.4 km/h 17.7 km/h 91% 0.0 mm 40 W/m2
11:19 6.6 °C 5.2 °C 1031.8 hPa WNW 3.2 km/h 19.3 km/h 91% 0.0 mm 39 W/m2
11:24 6.5 °C 5.3 °C 1031.8 hPa WNW 4.7 km/h 14.5 km/h 92% 0.0 mm 42 W/m2
11:29 6.4 °C 5.2 °C 1031.8 hPa NNW 4.7 km/h 19.3 km/h 92% 0.0 mm 53 W/m2
11:34 6.4 °C 5.2 °C 1031.8 hPa NNW 9.7 km/h 11.3 km/h 92% 0.0 mm 51 W/m2
11:39 6.3 °C 5.1 °C 1032.2 hPa WNW 7.9 km/h 9.7 km/h 92% 0.0 mm 49 W/m2
11:44 6.3 °C 5.1 °C 1032.2 hPa North 6.4 km/h 12.9 km/h 92% 0.0 mm 46 W/m2
11:49 6.3 °C 5.1 °C 1032.2 hPa South 6.4 km/h 11.3 km/h 92% 0.0 mm 42 W/m2
11:54 6.4 °C 5 °C 1032.2 hPa North 6.4 km/h 12.9 km/h 91% 0.0 mm 46 W/m2
11:59 6.4 °C 5 °C 1032.2 hPa NNW 3.2 km/h 6.4 km/h 91% 0.0 mm 42 W/m2
12:04 6.6 °C 5.1 °C 1032.2 hPa West 3.2 km/h 14.5 km/h 90% 0.0 mm 69 W/m2
12:09 6.7 °C 5.2 °C 1032.2 hPa NW 3.2 km/h 17.7 km/h 90% 0.0 mm 77 W/m2
12:14 6.7 °C 5 °C 1032.2 hPa NW 6.4 km/h 8 km/h 89% 0.0 mm 81 W/m2
12:19 6.8 °C 5.1 °C 1032.2 hPa North 1.4 km/h 6.4 km/h 89% 0.0 mm 77 W/m2
12:24 6.8 °C 5.1 °C 1032.2 hPa East 14.3 km/h 14.5 km/h 89% 0.0 mm 95 W/m2
12:29 6.8 °C 5 °C 1031.8 hPa NW 3.2 km/h 11.3 km/h 88% 0.0 mm 105 W/m2
12:34 6.9 °C 4.9 °C 1032.2 hPa North 3.2 km/h 6.4 km/h 87% 0.0 mm 104 W/m2
12:39 6.9 °C 4.9 °C 1032.2 hPa WNW 3.2 km/h 11.3 km/h 87% 0.0 mm 70 W/m2
12:44 6.9 °C 4.9 °C 1032.2 hPa NNW 4.7 km/h 6.4 km/h 87% 0.0 mm 72 W/m2
12:49 6.9 °C 4.9 °C 1032.2 hPa Calm   8 km/h 87% 0.0 mm 62 W/m2
12:54 6.9 °C 4.9 °C 1032.2 hPa NNW 6.4 km/h 16.1 km/h 87% 0.0 mm 53 W/m2
12:59 6.8 °C 4.8 °C 1032.2 hPa Calm   9.7 km/h 87% 0.0 mm 76 W/m2
13:04 6.9 °C 5.1 °C 1032.2 hPa NW 3.2 km/h 16.1 km/h 88% 0.0 mm 81 W/m2
13:09 6.8 °C 5 °C 1032.5 hPa WNW 4.7 km/h 8 km/h 88% 0.0 mm 69 W/m2
13:14 6.8 °C 5 °C 1032.5 hPa West 4.7 km/h 8 km/h 88% 0.0 mm 56 W/m2
13:19 6.7 °C 4.9 °C 1032.5 hPa NW 6.4 km/h 12.9 km/h 88% 0.2 mm 69 W/m2
13:24 6.7 °C 4.9 °C 1032.5 hPa NNW 13 km/h 12.9 km/h 88% 0.2 mm 58 W/m2
13:29 6.6 °C 4.8 °C 1032.5 hPa NNW 7.9 km/h 20.9 km/h 88% 0.2 mm 63 W/m2
13:34 6.4 °C 4.6 °C 1032.5 hPa NNW 6.4 km/h 12.9 km/h 88% 0.2 mm 54 W/m2
13:39 6.3 °C 4.5 °C 1032.5 hPa West 4.7 km/h 11.3 km/h 88% 0.2 mm 60 W/m2
13:44 6.3 °C 4.5 °C 1032.5 hPa West 3.2 km/h 14.5 km/h 88% 0.5 mm 62 W/m2
13:49 6.3 °C 4.6 °C 1032.5 hPa WNW 7.9 km/h 11.3 km/h 89% 0.5 mm 56 W/m2
13:55 6.3 °C 4.5 °C 1032.5 hPa NNW 1.4 km/h 11.3 km/h 88% 0.5 mm 63 W/m2
14:05 6.3 °C 4.6 °C 1032.5 hPa West 9.7 km/h 16.1 km/h 89% 0.5 mm 77 W/m2
14:10 6.3 °C 4.6 °C 1032.5 hPa West 3.2 km/h 16.1 km/h 89% 0.5 mm 91 W/m2
14:15 6.3 °C 4.6 °C 1032.5 hPa North 1.4 km/h 6.4 km/h 89% 0.5 mm 121 W/m2
14:20 6.3 °C 4.6 °C 1032.5 hPa North 6.4 km/h 16.1 km/h 89% 0.2 mm 158 W/m2
14:25 6.3 °C 4.6 °C 1032.5 hPa West 3.2 km/h 16.1 km/h 89% 0.2 mm 160 W/m2
14:30 6.3 °C 4.5 °C 1032.5 hPa West 1.4 km/h 4.8 km/h 88% 0.2 mm 167 W/m2
14:35 6.4 °C 4.6 °C 1032.5 hPa NNW 9.7 km/h 16.1 km/h 88% 0.2 mm 144 W/m2
14:40 6.5 °C 4.7 °C 1032.2 hPa SE 1.4 km/h 9.7 km/h 88% 0.2 mm 141 W/m2
14:45 6.6 °C 4.6 °C 1032.5 hPa NW 9.7 km/h 16.1 km/h 87% 0.0 mm 125 W/m2
14:50 6.6 °C 4.4 °C 1032.5 hPa East 3.2 km/h 6.4 km/h 86% 0.0 mm 109 W/m2
14:55 6.7 °C 4.5 °C 1032.5 hPa NE 3.2 km/h 12.9 km/h 86% 0.0 mm 91 W/m2
15:00 6.8 °C 4.6 °C 1032.5 hPa NE 3.2 km/h 8 km/h 86% 0.0 mm 104 W/m2
15:05 6.8 °C 4.6 °C 1032.5 hPa Calm   8 km/h 86% 0.0 mm 146 W/m2
15:10 6.8 °C 4.5 °C 1032.5 hPa ENE 4.7 km/h 6.4 km/h 85% 0.0 mm 179 W/m2
15:15 6.9 °C 4.6 °C 1032.5 hPa NNW 1.4 km/h 4.8 km/h 85% 0.0 mm 160 W/m2
15:20 7 °C 4.8 °C 1032.5 hPa NW 1.4 km/h 8 km/h 86% 0.0 mm 118 W/m2
15:25 7.1 °C 4.7 °C 1032.5 hPa ESE 3.2 km/h 6.4 km/h 85% 0.0 mm 105 W/m2
15:30 7.1 °C 4.7 °C 1032.5 hPa WSW 1.4 km/h 3.2 km/h 85% 0.0 mm 102 W/m2
15:35 7.2 °C 4.8 °C 1032.5 hPa ENE 4.7 km/h 6.4 km/h 85% 0.0 mm 111 W/m2
15:45 7.1 °C 4.6 °C 1032.5 hPa ENE 1.4 km/h 8 km/h 84% 0.0 mm 111 W/m2
15:50 7.1 °C 4.7 °C 1032.5 hPa East 1.4 km/h 9.7 km/h 85% 0.0 mm 107 W/m2
15:55 7.1 °C 4.6 °C 1032.8 hPa ENE 1.4 km/h 6.4 km/h 84% 0.0 mm 100 W/m2
16:00 7.1 °C 4.7 °C 1032.5 hPa ENE 3.2 km/h 6.4 km/h 85% 0.0 mm 86 W/m2
16:05 7.1 °C 4.7 °C 1032.8 hPa NNW 3.2 km/h 4.8 km/h 85% 0.0 mm 70 W/m2
16:10 7.1 °C 4.7 °C 1032.8 hPa NW 3.2 km/h 4.8 km/h 85% 0.0 mm 62 W/m2
16:15 7.1 °C 4.7 °C 1032.8 hPa NW 3.2 km/h 8 km/h 85% 0.0 mm 63 W/m2
16:20 7.1 °C 4.7 °C 1032.8 hPa NE 1.4 km/h 4.8 km/h 85% 0.0 mm 74 W/m2
16:25 7.1 °C 4.7 °C 1032.8 hPa SSW 1.4 km/h 8 km/h 85% 0.0 mm 69 W/m2
16:30 7.2 °C 4.8 °C 1032.8 hPa East 1.4 km/h 4.8 km/h 85% 0.0 mm 77 W/m2
16:35 7.2 °C 4.8 °C 1032.8 hPa NE 4.7 km/h 4.8 km/h 85% 0.0 mm 88 W/m2
16:40 7.2 °C 4.8 °C 1032.8 hPa ENE 1.4 km/h 1.6 km/h 85% 0.0 mm 86 W/m2
16:45 7.2 °C 4.8 °C 1032.8 hPa NW 1.4 km/h 4.8 km/h 85% 0.0 mm 69 W/m2
16:50 7.2 °C 4.8 °C 1032.8 hPa East 1.4 km/h 3.2 km/h 85% 0.0 mm 56 W/m2
16:55 7.2 °C 4.8 °C 1032.8 hPa East 1.4 km/h 3.2 km/h 85% 0.0 mm 46 W/m2
17:00 7.2 °C 4.7 °C 1032.8 hPa Calm   1.6 km/h 84% 0.0 mm 47 W/m2
17:05 7.2 °C 4.8 °C 1032.8 hPa ENE 1.4 km/h 1.6 km/h 85% 0.0 mm 47 W/m2
17:15 7.3 °C 4.8 °C 1032.8 hPa Calm   3.2 km/h 84% 0.0 mm 46 W/m2
17:20 7.3 °C 4.8 °C 1032.8 hPa Calm     84% 0.0 mm 42 W/m2
17:25 7.3 °C 4.9 °C 1032.8 hPa Calm   1.6 km/h 85% 0.0 mm 39 W/m2
17:30 7.3 °C 4.9 °C 1032.8 hPa Calm     85% 0.0 mm 33 W/m2
17:35 7.2 °C 4.8 °C 1032.8 hPa Calm   3.2 km/h 85% 0.0 mm 30 W/m2
17:40 7.2 °C 4.8 °C 1032.8 hPa NE 1.4 km/h 1.6 km/h 85% 0.0 mm 26 W/m2
17:45 7.1 °C 4.7 °C 1032.8 hPa Calm     85% 0.0 mm 19 W/m2
17:50 7 °C 4.7 °C 1033.2 hPa Calm     85% 0.0 mm 14 W/m2
17:55 6.9 °C 4.6 °C 1033.2 hPa Calm   1.6 km/h 85% 0.0 mm 12 W/m2
18:00 6.8 °C 4.5 °C 1033.2 hPa Calm     85% 0.0 mm 12 W/m2
18:05 6.6 °C 4.4 °C 1033.2 hPa Calm   1.6 km/h 86% 0.0 mm 5 W/m2
18:10 6.5 °C 4.5 °C 1033.2 hPa Calm     87% 0.0 mm 0 W/m2
18:15 6.4 °C 4.4 °C 1033.2 hPa Calm     87% 0.0 mm 0 W/m2
18:20 6.3 °C 4.3 °C 1033.5 hPa Calm     87% 0.0 mm 0 W/m2
18:25 6.3 °C 4.5 °C 1033.5 hPa Calm     88% 0.0 mm 0 W/m2
18:30 6.2 °C 4.4 °C 1033.5 hPa Calm     88% 0.0 mm 0 W/m2
18:35 6.2 °C 4.5 °C 1033.5 hPa Calm     89% 0.0 mm 0 W/m2
18:40 6.2 °C 4.5 °C 1033.5 hPa Calm     89% 0.0 mm 0 W/m2
18:50 6.2 °C 4.5 °C 1033.5 hPa Calm     89% 0.0 mm 0 W/m2
18:55 6.2 °C 4.5 °C 1033.5 hPa Calm     89% 0.0 mm 0 W/m2
19:01 6.1 °C 4.4 °C 1033.9 hPa Calm     89% 0.0 mm 0 W/m2
19:06 6 °C 4.3 °C 1033.9 hPa Calm     89% 0.0 mm 0 W/m2
19:11 5.9 °C 4.2 °C 1033.9 hPa Calm     89% 0.0 mm 0 W/m2
19:16 5.8 °C 4.3 °C 1033.9 hPa Calm     90% 0.0 mm 0 W/m2
19:21 5.8 °C 4.3 °C 1033.9 hPa Calm     90% 0.0 mm 0 W/m2
19:26 5.8 °C 4.3 °C 1033.9 hPa Calm     90% 0.0 mm 0 W/m2
19:31 5.8 °C 4.3 °C 1033.9 hPa NE 1.4 km/h 3.2 km/h 90% 0.0 mm 0 W/m2
19:36 5.8 °C 4.4 °C 1034.2 hPa Calm     91% 0.0 mm 0 W/m2
19:41 5.8 °C 4.4 °C 1034.2 hPa Calm     91% 0.0 mm 0 W/m2
19:46 5.8 °C 4.4 °C 1033.9 hPa Calm     91% 0.0 mm 0 W/m2
19:51 5.9 °C 4.5 °C 1033.9 hPa NE 1.4 km/h 1.6 km/h 91% 0.0 mm 0 W/m2
19:56 5.9 °C 4.5 °C 1034.2 hPa Calm   1.6 km/h 91% 0.0 mm 0 W/m2
20:01 5.9 °C 4.5 °C 1033.9 hPa West 3.2 km/h 3.2 km/h 91% 0.0 mm 0 W/m2
20:06 5.9 °C 4.5 °C 1034.2 hPa West 3.2 km/h 3.2 km/h 91% 0.0 mm 0 W/m2
20:11 5.9 °C 4.4 °C 1033.9 hPa West 1.4 km/h 4.8 km/h 90% 0.0 mm 0 W/m2
20:16 5.9 °C 4.4 °C 1034.2 hPa Calm   4.8 km/h 90% 0.0 mm 0 W/m2
20:21 6 °C 4.3 °C 1034.2 hPa Calm   1.6 km/h 89% 0.0 mm 0 W/m2
20:26 5.9 °C 4.2 °C 1034.2 hPa West 3.2 km/h 4.8 km/h 89% 0.0 mm 0 W/m2
20:31 5.9 °C 4.1 °C 1034.2 hPa Calm   3.2 km/h 88% 0.0 mm 0 W/m2
20:36 5.8 °C 4 °C 1034.2 hPa WSW 1.4 km/h 4.8 km/h 88% 0.0 mm 0 W/m2
20:41 5.7 °C 3.7 °C 1034.2 hPa West 3.2 km/h 3.2 km/h 87% 0.0 mm 0 W/m2
20:46 5.6 °C 3.6 °C 1034.2 hPa Calm   6.4 km/h 87% 0.0 mm 0 W/m2
20:51 5.6 °C 3.4 °C 1034.5 hPa Calm   1.6 km/h 86% 0.0 mm 0 W/m2
20:56 5.5 °C 3.3 °C 1034.5 hPa WSW 1.4 km/h 6.4 km/h 86% 0.0 mm 0 W/m2
21:01 5.4 °C 3.1 °C 1034.5 hPa Calm   3.2 km/h 85% 0.0 mm 0 W/m2
21:06 5.3 °C 2.8 °C 1034.5 hPa Calm   1.6 km/h 84% 0.0 mm 0 W/m2
21:11 5.2 °C 2.7 °C 1034.5 hPa Calm   3.2 km/h 84% 0.0 mm 0 W/m2
21:16 5.1 °C 2.6 °C 1034.5 hPa SSE 1.4 km/h 3.2 km/h 84% 0.0 mm 0 W/m2
21:21 4.9 °C 2.4 °C 1034.5 hPa Calm     84% 0.0 mm 0 W/m2
21:26 4.8 °C 2.3 °C 1034.5 hPa SSE 1.4 km/h 1.6 km/h 84% 0.0 mm 0 W/m2
21:31 4.6 °C 2.1 °C 1034.5 hPa Calm   1.6 km/h 84% 0.0 mm 0 W/m2
21:36 4.4 °C 2.1 °C 1034.9 hPa Calm     85% 0.0 mm 0 W/m2
21:41 4.3 °C 2 °C 1034.9 hPa Calm     85% 0.0 mm 0 W/m2
21:46 4.2 °C 1.9 °C 1034.9 hPa Calm     85% 0.0 mm 0 W/m2
21:51 4.1 °C 2 °C 1034.9 hPa Calm     86% 0.0 mm 0 W/m2
21:56 4 °C 2 °C 1035.2 hPa Calm     87% 0.0 mm 0 W/m2
22:01 3.9 °C 2.1 °C 1035.2 hPa Calm     88% 0.0 mm 0 W/m2
22:06 3.9 °C 2.1 °C 1035.2 hPa Calm     88% 0.0 mm 0 W/m2
22:11 3.9 °C 2.1 °C 1035.2 hPa Calm     88% 0.0 mm 0 W/m2
22:16 3.8 °C 2 °C 1035.6 hPa Calm     88% 0.0 mm 0 W/m2
22:21 3.8 °C 2 °C 1035.6 hPa Calm   1.6 km/h 88% 0.0 mm 0 W/m2
22:26 3.7 °C 2.1 °C 1035.6 hPa Calm     89% 0.0 mm 0 W/m2
22:31 3.8 °C 2.2 °C 1035.6 hPa Calm     89% 0.0 mm 0 W/m2
22:36 3.8 °C 2.3 °C 1035.6 hPa Calm   1.6 km/h 90% 0.0 mm 0 W/m2
22:41 3.8 °C 2.3 °C 1035.6 hPa Calm     90% 0.0 mm 0 W/m2
22:46 3.8 °C 2.3 °C 1035.6 hPa SSE 1.4 km/h 3.2 km/h 90% 0.0 mm 0 W/m2
22:51 3.7 °C 2.1 °C 1035.6 hPa Calm   1.6 km/h 89% 0.0 mm 0 W/m2
22:56 3.7 °C 2.1 °C 1035.6 hPa Calm   3.2 km/h 89% 0.0 mm 0 W/m2
23:01 3.6 °C 2 °C 1035.6 hPa Calm     89% 0.0 mm 0 W/m2
23:06 3.6 °C 2 °C 1035.6 hPa Calm     89% 0.0 mm 0 W/m2
23:11 3.5 °C 1.9 °C 1035.2 hPa Calm   1.6 km/h 89% 0.0 mm 0 W/m2
23:17 3.4 °C 1.8 °C 1035.6 hPa Calm     89% 0.0 mm 0 W/m2
23:27 3.3 °C 1.7 °C 1035.6 hPa Calm     89% 0.0 mm 0 W/m2
23:32 3.3 °C 1.5 °C 1035.6 hPa Calm   1.6 km/h 88% 0.0 mm 0 W/m2
23:37 3.2 °C 1.6 °C 1035.6 hPa SSE 1.4 km/h 3.2 km/h 89% 0.0 mm 0 W/m2
23:42 3.2 °C 1.4 °C 1035.6 hPa Calm   3.2 km/h 88% 0.0 mm 0 W/m2
23:47 3.1 °C 1.3 °C 1035.6 hPa Calm   1.6 km/h 88% 0.0 mm 0 W/m2
23:52 3.1 °C 1.3 °C 1035.6 hPa Calm   3.2 km/h 88% 0.0 mm 0 W/m2
23:57 3.2 °C 1.4 °C 1035.2 hPa Calm     88% 0.0 mm 0 W/m2
Juneau County Weather
Compliments of Weather Underground - 2 mb